Time;durP1;ratioP1;P1;durP2;ratioP2;P2;SDS_P1;SDS_P2;PMS_P1;PMS_P2;Temp;Humidity;BMP_temperature;BMP_pressure;BME280_temperature;BME280_humidity;BME280_pressure;Samples;Min_cycle;Max_cycle;Signal;HPM_P1;HPM_P2
2022/08/02 00:01:54;;;;;;;4.75;2.72;;;12.30;99.90;;;;;;4862199;29;20080;-66
2022/08/02 00:04:19;;;;;;;4.10;3.20;;;12.30;99.90;;;;;;4825105;29;20140;-66
2022/08/02 00:06:45;;;;;;;6.32;3.20;;;12.30;99.90;;;;;;4840680;29;20053;-66
2022/08/02 00:09:11;;;;;;;4.68;3.13;;;12.30;99.90;;;;;;4844556;29;20136;-66
2022/08/02 00:11:36;;;;;;;6.72;3.22;;;12.20;99.90;;;;;;4858182;29;20057;-66
2022/08/02 00:14:03;;;;;;;3.33;2.83;;;12.20;99.90;;;;;;4860953;29;20076;-66
2022/08/02 00:16:28;;;;;;;5.95;3.20;;;12.20;99.90;;;;;;4858314;29;20064;-66
2022/08/02 00:18:54;;;;;;;8.60;2.90;;;12.20;99.90;;;;;;4845521;29;20403;-66
2022/08/02 00:21:20;;;;;;;7.72;3.20;;;12.20;99.90;;;;;;4841962;29;20363;-66
2022/08/02 00:23:45;;;;;;;5.45;3.10;;;12.20;99.90;;;;;;4861908;29;20057;-66
2022/08/02 00:26:11;;;;;;;5.72;3.50;;;12.30;99.90;;;;;;4860838;29;20068;-66
2022/08/02 00:28:37;;;;;;;3.67;2.95;;;12.30;99.90;;;;;;4855082;29;20056;-66
2022/08/02 00:31:02;;;;;;;7.30;3.53;;;12.30;99.90;;;;;;4856429;29;20080;-66
2022/08/02 00:33:28;;;;;;;7.90;3.50;;;12.20;99.90;;;;;;4861475;29;20140;-66
2022/08/02 00:35:53;;;;;;;5.85;3.45;;;12.20;99.90;;;;;;4848911;29;20479;-66
2022/08/02 00:38:19;;;;;;;6.90;3.38;;;12.20;99.90;;;;;;4859668;29;20065;-66
2022/08/02 00:40:49;;;;;;;7.78;3.90;;;12.20;99.90;;;;;;4861440;29;20452;-66
2022/08/02 00:43:15;;;;;;;4.25;3.22;;;12.10;99.90;;;;;;4852775;29;20062;-65
2022/08/02 00:45:41;;;;;;;6.43;3.47;;;12.10;99.90;;;;;;4857299;29;20045;-66
2022/08/02 00:48:09;;;;;;;5.47;3.80;;;12.10;99.90;;;;;;4861528;29;20048;-66
2022/08/02 00:50:35;;;;;;;6.22;3.70;;;12.10;99.90;;;;;;4847630;29;20110;-66
2022/08/02 00:53:01;;;;;;;7.30;3.80;;;12.10;99.90;;;;;;4841393;29;20543;-65
2022/08/02 00:55:27;;;;;;;8.43;3.85;;;12.10;99.90;;;;;;4841922;29;20129;-65
2022/08/02 00:57:53;;;;;;;8.70;3.85;;;12.10;99.90;;;;;;4849066;29;20094;-66
2022/08/02 01:00:19;;;;;;;7.35;4.05;;;12.00;99.90;;;;;;4861073;29;20075;-66
2022/08/02 01:02:44;;;;;;;8.10;4.03;;;12.10;99.90;;;;;;4850932;29;20080;-66
2022/08/02 01:05:10;;;;;;;5.75;4.15;;;12.10;99.90;;;;;;4841668;29;20049;-66
2022/08/02 01:07:37;;;;;;;4.53;3.20;;;12.00;99.90;;;;;;4841961;29;20513;-66
2022/08/02 01:10:04;;;;;;;6.50;4.60;;;12.00;99.90;;;;;;4840603;29;20129;-66
2022/08/02 01:12:29;;;;;;;7.03;4.15;;;12.00;99.90;;;;;;4843502;29;20124;-66
2022/08/02 01:14:58;;;;;;;6.93;3.92;;;11.90;99.90;;;;;;4860021;29;20137;-66
2022/08/02 01:17:31;;;;;;;6.28;3.83;;;11.90;99.90;;;;;;4852107;29;20160;-66
2022/08/02 01:20:16;;;;;;;7.28;4.20;;;11.90;99.90;;;;;;4841761;29;20453;-66
2022/08/02 01:23:09;;;;;;;8.07;4.53;;;11.90;99.90;;;;;;4841862;29;20492;-66
2022/08/02 01:26:07;;;;;;;9.30;4.18;;;11.90;99.90;;;;;;4856950;29;20061;-66
2022/08/02 01:29:00;;;;;;;8.15;3.88;;;11.90;99.90;;;;;;4856013;29;20172;-66
2022/08/02 01:31:29;;;;;;;10.35;4.40;;;11.90;99.90;;;;;;4842003;29;20133;-66
2022/08/02 01:34:19;;;;;;;6.72;4.30;;;11.80;99.90;;;;;;4841891;29;20054;-66
2022/08/02 01:36:58;;;;;;;4.68;4.13;;;11.80;99.90;;;;;;4841505;29;20054;-66
2022/08/02 01:39:27;;;;;;;6.72;3.38;;;11.80;99.90;;;;;;4840140;29;20054;-66
2022/08/02 01:41:54;;;;;;;7.55;4.38;;;11.80;99.90;;;;;;4850095;29;20061;-66
2022/08/02 01:44:21;;;;;;;11.00;4.47;;;11.80;99.90;;;;;;4860754;29;20057;-66
2022/08/02 01:46:48;;;;;;;7.30;4.10;;;11.80;99.90;;;;;;4849768;29;20060;-65
2022/08/02 01:49:17;;;;;;;7.00;4.03;;;11.80;99.90;;;;;;4842131;29;20058;-66
2022/08/02 01:54:32;;;;;;;10.25;4.75;;;11.80;99.90;;;;;;4843859;29;20419;-66
2022/08/02 01:57:02;;;;;;;6.53;4.40;;;11.80;99.90;;;;;;4850605;29;20157;-66
2022/08/02 01:59:30;;;;;;;7.95;4.50;;;11.80;99.90;;;;;;4841091;29;20058;-66
2022/08/02 02:01:58;;;;;;;7.93;4.43;;;11.80;99.90;;;;;;4842004;29;20098;-66
2022/08/02 02:04:25;;;;;;;6.22;4.53;;;11.70;99.90;;;;;;4845662;29;20045;-66
2022/08/02 02:06:52;;;;;;;8.88;4.80;;;11.70;99.90;;;;;;4840518;29;20137;-66
2022/08/02 02:09:19;;;;;;;8.05;4.30;;;11.80;99.90;;;;;;4846258;29;20105;-66
2022/08/02 02:11:47;;;;;;;8.70;4.45;;;11.70;99.90;;;;;;4844012;29;20098;-66
2022/08/02 02:14:14;;;;;;;9.05;4.43;;;11.70;99.90;;;;;;4853718;29;20049;-64
2022/08/02 02:16:43;;;;;;;10.43;4.47;;;11.70;99.90;;;;;;4840818;29;20050;-65
2022/08/02 02:19:09;;;;;;;5.28;4.03;;;11.70;99.90;;;;;;4855467;29;20415;-65
2022/08/02 02:21:36;;;;;;;11.98;5.28;;;11.60;99.90;;;;;;4860017;29;20444;-65
2022/08/02 02:24:02;;;;;;;7.40;3.97;;;11.70;99.90;;;;;;4827328;29;20057;-65
2022/08/02 02:26:30;;;;;;;8.30;4.72;;;11.60;99.90;;;;;;4843360;29;20065;-65
2022/08/02 02:29:00;;;;;;;5.32;4.35;;;11.60;99.90;;;;;;4817019;29;20053;-66
2022/08/02 02:31:28;;;;;;;8.23;4.43;;;11.60;99.90;;;;;;4844322;29;20526;-65
2022/08/02 02:34:03;;;;;;;10.02;5.00;;;11.60;99.90;;;;;;4863613;29;20088;-65
2022/08/02 02:36:30;;;;;;;8.07;4.55;;;11.60;99.90;;;;;;4843394;29;20183;-66
2022/08/02 02:39:00;;;;;;;8.00;4.72;;;11.60;99.90;;;;;;4851632;29;20514;-65
2022/08/02 02:41:26;;;;;;;5.53;4.55;;;11.60;99.90;;;;;;4827801;29;20057;-66
2022/08/02 02:43:58;;;;;;;9.13;4.60;;;11.60;99.90;;;;;;4844300;29;20061;-65
2022/08/02 02:46:25;;;;;;;9.43;4.78;;;11.60;99.90;;;;;;4845221;29;20412;-65
2022/08/02 02:48:52;;;;;;;9.68;5.30;;;11.60;99.90;;;;;;4844249;29;20716;-65
2022/08/02 02:51:21;;;;;;;11.65;5.85;;;11.60;99.90;;;;;;4843778;29;20568;-66
2022/08/02 02:53:49;;;;;;;9.13;5.32;;;11.60;99.90;;;;;;4855394;29;20067;-65
2022/08/02 02:56:16;;;;;;;6.38;4.82;;;11.60;99.90;;;;;;4857962;29;20181;-65
2022/08/02 02:58:43;;;;;;;7.35;4.88;;;11.60;99.90;;;;;;4847062;29;20065;-64
2022/08/02 03:01:27;;;;;;;10.52;5.47;;;11.60;99.90;;;;;;4849550;29;20049;-66
2022/08/02 03:03:55;;;;;;;8.32;5.40;;;11.70;99.90;;;;;;4855037;29;20471;-65
2022/08/02 03:06:20;;;;;;;10.40;5.32;;;11.70;99.90;;;;;;4856312;29;20057;-65
2022/08/02 03:08:46;;;;;;;10.82;5.18;;;11.70;99.90;;;;;;4843657;29;20060;-66
2022/08/02 03:11:12;;;;;;;9.55;5.15;;;11.60;99.90;;;;;;4813123;29;20092;-66
2022/08/02 03:13:39;;;;;;;7.80;4.63;;;11.70;99.90;;;;;;4843865;29;20391;-65
2022/08/02 03:16:05;;;;;;;8.52;5.80;;;11.70;99.90;;;;;;4858370;29;20094;-65
2022/08/02 03:18:35;;;;;;;9.23;5.25;;;11.60;99.90;;;;;;4852361;29;20056;-65
2022/08/02 03:21:06;;;;;;;8.30;4.82;;;11.70;99.90;;;;;;4827968;29;20062;-66
2022/08/02 03:23:33;;;;;;;6.80;4.65;;;11.70;99.90;;;;;;4827330;29;20997;-66
2022/08/02 03:25:59;;;;;;;9.20;4.70;;;11.60;99.90;;;;;;4845673;29;20428;-66
2022/08/02 03:28:25;;;;;;;8.02;5.20;;;11.60;99.90;;;;;;4860853;29;20068;-66
2022/08/02 03:30:51;;;;;;;10.23;4.57;;;11.60;99.90;;;;;;4862897;29;20053;-65
2022/08/02 03:33:21;;;;;;;8.95;5.00;;;11.60;99.90;;;;;;4861794;29;20061;-65
2022/08/02 03:35:48;;;;;;;8.27;4.80;;;11.60;99.90;;;;;;4860204;29;20065;-65
2022/08/02 03:38:16;;;;;;;10.70;5.20;;;11.60;99.90;;;;;;4848577;29;20057;-65
2022/08/02 03:40:43;;;;;;;10.20;5.05;;;11.60;99.90;;;;;;4860963;29;20052;-65
2022/08/02 03:43:10;;;;;;;7.57;4.82;;;11.60;99.90;;;;;;4860975;29;20057;-65
2022/08/02 03:45:38;;;;;;;8.27;5.15;;;11.60;99.90;;;;;;4860487;29;20046;-66
2022/08/02 03:48:04;;;;;;;8.25;5.22;;;11.60;99.90;;;;;;4863091;29;20057;-66
2022/08/02 03:50:32;;;;;;;7.20;5.20;;;11.60;99.90;;;;;;4861487;29;20050;-65
2022/08/02 03:52:58;;;;;;;12.15;5.97;;;11.60;99.90;;;;;;4845438;29;20456;-65
2022/08/02 03:55:24;;;;;;;9.65;5.43;;;11.60;99.90;;;;;;4856793;29;20110;-66
2022/08/02 03:57:50;;;;;;;9.63;5.22;;;11.60;99.90;;;;;;4854441;29;20053;-65
2022/08/02 04:00:21;;;;;;;9.82;5.82;;;11.60;99.90;;;;;;4859698;29;20411;-65
2022/08/02 04:02:48;;;;;;;10.60;5.95;;;11.60;99.90;;;;;;4849224;29;20060;-65
2022/08/02 04:05:14;;;;;;;10.50;5.30;;;11.70;99.90;;;;;;4859285;29;20053;-66
2022/08/02 04:07:42;;;;;;;13.63;5.60;;;11.70;99.90;;;;;;4850862;29;20045;-66
2022/08/02 04:10:08;;;;;;;10.52;5.85;;;11.60;99.90;;;;;;4860108;29;20836;-65
2022/08/02 04:12:35;;;;;;;8.40;4.95;;;11.70;99.90;;;;;;4859251;29;20087;-65
2022/08/02 04:15:04;;;;;;;7.10;4.95;;;11.70;99.90;;;;;;4845439;29;20475;-66
2022/08/02 04:17:42;;;;;;;7.10;4.95;;;11.70;99.90;;;;;;4844444;29;20453;-65
2022/08/02 04:20:26;;;;;;;7.45;4.75;;;11.70;99.90;;;;;;4861463;29;20403;-65
2022/08/02 04:23:01;;;;;;;8.32;5.93;;;11.80;99.90;;;;;;4859465;29;20092;-66
2022/08/02 04:25:26;;;;;;;10.50;5.80;;;11.80;99.90;;;;;;4861693;29;20057;-65
2022/08/02 04:27:52;;;;;;;9.20;6.18;;;11.90;99.90;;;;;;4844280;29;20065;-66
2022/08/02 04:30:20;;;;;;;10.07;5.13;;;11.90;99.90;;;;;;4862006;29;20072;-65
2022/08/02 04:32:45;;;;;;;7.60;5.72;;;11.90;99.90;;;;;;4861075;29;20061;-65
2022/08/02 04:35:11;;;;;;;12.68;5.78;;;12.00;99.90;;;;;;4852771;29;20396;-66
2022/08/02 04:37:38;;;;;;;9.18;5.80;;;12.10;99.90;;;;;;4856037;29;20068;-65
2022/08/02 04:40:09;;;;;;;7.57;6.03;;;12.10;99.90;;;;;;4850274;29;20045;-66
2022/08/02 04:42:34;;;;;;;9.77;5.25;;;12.20;99.90;;;;;;4858620;29;20053;-65
2022/08/02 04:45:01;;;;;;;7.57;5.47;;;12.30;99.90;;;;;;4860665;29;20057;-65
2022/08/02 04:47:27;;;;;;;9.95;6.05;;;12.30;99.90;;;;;;4846887;29;20054;-65
2022/08/02 04:49:53;;;;;;;8.88;5.60;;;12.40;99.90;;;;;;4843032;29;20072;-66
2022/08/02 04:52:19;;;;;;;10.57;6.03;;;12.50;99.90;;;;;;4840758;29;20050;-66
2022/08/02 04:54:44;;;;;;;8.43;6.40;;;12.50;99.90;;;;;;4854479;29;20058;-65
2022/08/02 04:59:55;;;;;;;11.57;6.18;;;12.50;99.90;;;;;;4842082;29;20046;-65
2022/08/02 05:02:20;;;;;;;7.35;6.50;;;12.50;99.90;;;;;;4839262;29;20080;-65
2022/08/02 05:04:46;;;;;;;13.15;6.57;;;12.50;99.90;;;;;;4841554;29;20086;-65
2022/08/02 05:07:12;;;;;;;10.18;6.13;;;12.60;99.90;;;;;;4838772;29;20136;-66
2022/08/02 05:09:37;;;;;;;11.13;6.85;;;12.60;99.90;;;;;;4840728;29;20054;-65
2022/08/02 05:12:03;;;;;;;10.30;6.53;;;12.60;99.90;;;;;;4842180;29;20090;-65
2022/08/02 05:14:28;;;;;;;7.18;5.75;;;12.70;99.90;;;;;;4841896;29;20054;-66
2022/08/02 05:16:54;;;;;;;12.68;6.70;;;12.80;99.90;;;;;;4842208;29;20404;-65
2022/08/02 05:19:19;;;;;;;12.15;6.45;;;12.70;99.90;;;;;;4848119;29;20097;-66
2022/08/02 05:21:45;;;;;;;11.15;6.60;;;12.80;99.90;;;;;;4841747;29;20057;-67
2022/08/02 05:24:10;;;;;;;10.63;6.43;;;12.90;99.90;;;;;;4850785;29;20049;-66
2022/08/02 05:26:36;;;;;;;8.07;6.53;;;12.90;99.90;;;;;;4855294;29;20069;-66
2022/08/02 05:29:03;;;;;;;13.32;7.13;;;12.90;99.90;;;;;;4848693;29;20568;-66
2022/08/02 05:31:29;;;;;;;10.70;6.63;;;13.00;99.90;;;;;;4860430;29;20058;-65
2022/08/02 05:34:14;;;;;;;9.57;6.18;;;13.00;99.90;;;;;;4840775;29;20053;-66
2022/08/02 05:36:43;;;;;;;10.57;6.82;;;13.10;99.90;;;;;;4833772;29;20075;-66
2022/08/02 05:39:09;;;;;;;9.25;6.55;;;13.20;99.90;;;;;;4834100;29;20050;-66
2022/08/02 05:41:35;;;;;;;12.23;7.03;;;13.30;99.90;;;;;;4837226;29;20409;-65
2022/08/02 05:44:02;;;;;;;14.10;6.95;;;13.60;99.90;;;;;;4840031;29;20567;-66
2022/08/02 05:46:28;;;;;;;9.88;7.00;;;14.40;99.90;;;;;;4822517;29;20155;-66
2022/08/02 05:48:54;;;;;;;11.63;6.75;;;15.70;99.90;;;;;;4823802;29;20050;-67
2022/08/02 05:51:58;;;;;;;9.25;6.88;;;16.80;99.90;;;;;;4837217;29;20547;-66
2022/08/02 05:54:27;;;;;;;9.70;6.30;;;17.80;99.90;;;;;;4841295;29;20069;-66
2022/08/02 05:57:02;;;;;;;7.35;5.57;;;18.60;99.90;;;;;;4855024;29;20062;-67
2022/08/02 05:59:47;;;;;;;7.13;5.65;;;19.00;99.90;;;;;;4841192;29;20054;-66
2022/08/02 06:02:43;;;;;;;8.20;5.90;;;19.60;99.90;;;;;;4824373;29;20086;-66
2022/08/02 06:05:18;;;;;;;6.35;5.03;;;20.00;99.90;;;;;;4857953;29;20053;-66
2022/08/02 06:07:47;;;;;;;7.60;4.95;;;20.40;99.90;;;;;;4831404;29;20103;-66
2022/08/02 06:10:14;;;;;;;7.28;4.57;;;20.80;99.90;;;;;;4845018;29;20061;-66
2022/08/02 06:12:50;;;;;;;6.07;4.15;;;21.00;99.90;;;;;;4844662;29;20090;-67
2022/08/02 06:15:18;;;;;;;11.55;4.43;;;21.30;99.90;;;;;;4844979;29;20390;-67
2022/08/02 06:17:44;;;;;;;7.25;3.83;;;21.40;99.90;;;;;;4845266;29;20062;-66
2022/08/02 06:20:13;;;;;;;6.68;4.53;;;21.50;99.90;;;;;;4845301;29;20050;-65
2022/08/02 06:22:43;;;;;;;6.72;4.38;;;21.80;99.90;;;;;;4844571;29;20062;-66
2022/08/02 06:25:13;;;;;;;10.55;4.00;;;21.70;99.90;;;;;;4846465;29;20057;-66
2022/08/02 06:27:40;;;;;;;5.97;3.80;;;21.60;99.90;;;;;;4845430;29;20136;-66
2022/08/02 06:30:08;;;;;;;8.55;4.38;;;21.20;99.90;;;;;;4857593;29;20076;-67
2022/08/02 06:32:34;;;;;;;8.57;3.80;;;20.50;99.90;;;;;;4863199;29;20152;-67
2022/08/02 06:35:04;;;;;;;7.18;4.22;;;19.80;99.90;;;;;;4863816;29;20491;-66
2022/08/02 06:37:49;;;;;;;10.07;4.15;;;19.30;99.90;;;;;;4862891;29;20447;-66
2022/08/02 06:40:29;;;;;;;5.88;3.85;;;19.00;99.90;;;;;;4863954;29;20458;-66
2022/08/02 06:43:22;;;;;;;5.95;3.50;;;18.80;99.90;;;;;;4862261;29;20065;-66
2022/08/02 06:45:48;;;;;;;10.27;4.15;;;18.70;99.90;;;;;;4846778;29;20444;-66
2022/08/02 06:48:14;;;;;;;7.00;3.85;;;18.70;99.90;;;;;;4844619;29;20108;-67
2022/08/02 06:50:42;;;;;;;8.05;4.15;;;18.70;99.90;;;;;;4862892;29;20041;-66
2022/08/02 06:53:09;;;;;;;8.40;4.03;;;18.70;99.90;;;;;;4863905;29;20037;-66
2022/08/02 06:55:35;;;;;;;4.38;3.25;;;18.60;99.90;;;;;;4846525;29;20057;-66
2022/08/02 06:58:01;;;;;;;7.63;4.22;;;18.60;99.90;;;;;;4863501;29;20041;-66
2022/08/02 07:00:28;;;;;;;6.88;3.53;;;18.70;99.90;;;;;;4846679;29;20550;-66
2022/08/02 07:02:53;;;;;;;10.45;3.80;;;18.70;99.90;;;;;;4862959;29;20041;-67
2022/08/02 07:05:19;;;;;;;5.68;3.90;;;18.80;99.90;;;;;;4862870;29;20509;-66
2022/08/02 07:07:45;;;;;;;6.13;3.80;;;18.90;99.90;;;;;;4845999;29;20128;-66
2022/08/02 07:10:12;;;;;;;7.10;3.70;;;19.00;99.90;;;;;;4846955;29;20061;-66
2022/08/02 07:12:38;;;;;;;5.57;3.33;;;19.10;99.90;;;;;;4863322;29;20075;-67
2022/08/02 07:15:05;;;;;;;5.78;3.28;;;19.20;99.90;;;;;;4862636;29;20078;-66
2022/08/02 07:17:32;;;;;;;6.43;3.63;;;19.40;99.90;;;;;;4862425;29;20057;-66
2022/08/02 07:19:58;;;;;;;7.70;3.40;;;19.60;99.90;;;;;;4846314;29;20049;-67
2022/08/02 07:22:25;;;;;;;6.22;3.30;;;19.80;99.90;;;;;;4862649;29;20113;-66
2022/08/02 07:24:52;;;;;;;5.47;2.83;;;19.80;99.90;;;;;;4846317;29;20064;-66
2022/08/02 07:27:19;;;;;;;4.88;2.92;;;19.80;99.90;;;;;;4862994;29;20466;-66
2022/08/02 07:29:45;;;;;;;7.28;3.33;;;19.70;99.90;;;;;;4862691;29;20092;-66
2022/08/02 07:32:10;;;;;;;4.43;2.50;;;19.70;99.90;;;;;;4845740;29;20085;-65
2022/08/02 07:34:36;;;;;;;4.75;2.78;;;19.50;99.90;;;;;;4830687;29;20090;-66
2022/08/02 07:37:02;;;;;;;4.80;2.55;;;19.40;99.90;;;;;;4861742;29;20085;-67
2022/08/02 07:39:28;;;;;;;4.47;2.17;;;19.50;99.90;;;;;;4845845;29;20629;-67
2022/08/02 07:41:53;;;;;;;4.93;2.22;;;19.60;99.90;;;;;;4862324;29;20049;-66
2022/08/02 07:44:20;;;;;;;2.97;2.20;;;19.70;99.90;;;;;;4862440;29;20057;-66
2022/08/02 07:46:46;;;;;;;5.80;2.65;;;19.90;99.90;;;;;;4845753;29;20089;-66
2022/08/02 07:49:17;;;;;;;4.18;2.22;;;20.10;99.90;;;;;;4862334;29;20088;-66
2022/08/02 07:51:46;;;;;;;4.60;2.20;;;20.30;99.90;;;;;;4829719;29;20072;-67
2022/08/02 07:54:11;;;;;;;3.85;2.10;;;20.50;99.90;;;;;;4845537;29;20487;-67
2022/08/02 07:56:37;;;;;;;4.22;2.00;;;20.60;99.90;;;;;;4862729;29;20061;-67
2022/08/02 07:59:03;;;;;;;5.53;2.10;;;20.70;99.90;;;;;;4862346;29;20140;-66
2022/08/02 08:01:29;;;;;;;5.03;2.25;;;20.80;99.90;;;;;;4845501;29;20064;-67
2022/08/02 08:03:55;;;;;;;3.03;1.92;;;20.90;99.90;;;;;;4862024;29;20053;-66
2022/08/02 08:06:20;;;;;;;6.45;2.40;;;20.90;99.90;;;;;;4845001;29;20148;-66
2022/08/02 08:08:46;;;;;;;4.82;2.67;;;21.10;99.90;;;;;;4845590;29;20060;-66
2022/08/02 08:11:12;;;;;;;7.53;2.40;;;21.10;99.90;;;;;;4862035;29;20141;-66
2022/08/02 08:13:37;;;;;;;6.20;2.35;;;21.30;99.90;;;;;;4862063;29;20080;-66
2022/08/02 08:16:03;;;;;;;5.88;2.33;;;21.40;99.90;;;;;;4843911;29;20049;-66
2022/08/02 08:18:29;;;;;;;3.40;2.20;;;21.50;99.90;;;;;;4862236;29;20181;-67
2022/08/02 08:20:54;;;;;;;4.43;1.80;;;21.50;99.90;;;;;;4861682;29;20184;-65
2022/08/02 08:23:20;;;;;;;4.82;2.10;;;21.70;99.90;;;;;;4862107;29;20515;-66
2022/08/02 08:25:45;;;;;;;10.10;2.00;;;21.80;99.90;;;;;;4844746;29;20065;-66
2022/08/02 08:28:11;;;;;;;3.70;2.05;;;21.90;99.90;;;;;;4860796;29;20068;-66
2022/08/02 08:30:39;;;;;;;3.47;1.90;;;22.00;99.90;;;;;;4845146;29;20114;-66
2022/08/02 08:33:05;;;;;;;5.10;2.05;;;22.10;99.90;;;;;;4845051;29;20137;-67
2022/08/02 08:35:30;;;;;;;3.20;1.83;;;22.30;99.90;;;;;;4845443;29;20057;-66
2022/08/02 08:37:56;;;;;;;5.07;2.00;;;22.40;99.90;;;;;;4861090;29;20062;-66
2022/08/02 08:40:24;;;;;;;5.28;1.60;;;22.50;99.90;;;;;;4861947;29;20065;-66
2022/08/02 08:42:50;;;;;;;5.45;1.63;;;22.60;99.90;;;;;;4829464;29;20132;-66
2022/08/02 08:45:16;;;;;;;3.97;2.00;;;22.70;99.90;;;;;;4861753;29;20137;-66
2022/08/02 08:47:42;;;;;;;3.45;1.70;;;22.70;99.90;;;;;;4844734;29;20061;-66
2022/08/02 08:50:18;;;;;;;3.95;1.90;;;22.90;99.90;;;;;;4861611;29;20133;-66
2022/08/02 08:52:50;;;;;;;2.83;1.50;;;22.90;99.90;;;;;;4844443;29;20061;-66
2022/08/02 08:55:16;;;;;;;3.97;1.70;;;23.00;99.90;;;;;;4844714;29;20065;-66
2022/08/02 08:57:42;;;;;;;3.13;1.85;;;23.10;99.90;;;;;;4843935;29;20475;-67
2022/08/02 09:00:11;;;;;;;2.85;1.35;;;23.20;99.90;;;;;;4861224;29;20540;-66
2022/08/02 09:02:39;;;;;;;4.55;1.50;;;23.20;99.90;;;;;;4860906;29;20136;-66
2022/08/02 09:05:13;;;;;;;2.45;1.33;;;23.30;99.90;;;;;;4860798;29;20050;-66
2022/08/02 09:07:41;;;;;;;4.30;1.60;;;23.30;99.90;;;;;;4859673;29;20516;-66
2022/08/02 09:10:32;;;;;;;4.63;1.60;;;23.40;99.90;;;;;;4860888;29;20060;-66
2022/08/02 09:13:21;;;;;;;3.22;1.42;;;23.30;97.60;;;;;;4861080;29;20113;-66
2022/08/02 09:15:56;;;;;;;2.65;1.27;;;23.50;97.00;;;;;;4859815;29;20068;-66
2022/08/02 09:18:37;;;;;;;3.50;1.70;;;23.60;99.60;;;;;;4859821;29;20498;-66
2022/08/02 09:21:05;;;;;;;4.22;1.70;;;23.70;97.00;;;;;;4829468;29;20057;-66
2022/08/02 09:23:40;;;;;;;4.03;1.60;;;23.80;98.30;;;;;;4844402;29;20096;-66
2022/08/02 09:26:14;;;;;;;3.90;1.33;;;23.90;96.60;;;;;;4860729;29;20069;-66
2022/08/02 09:28:42;;;;;;;2.08;1.50;;;24.10;94.20;;;;;;4844307;29;20067;-66
2022/08/02 09:31:09;;;;;;;2.83;1.73;;;24.20;94.20;;;;;;4844246;29;20054;-66
2022/08/02 09:33:36;;;;;;;5.18;1.85;;;24.30;93.70;;;;;;4860611;29;20045;-65
2022/08/02 09:36:08;;;;;;;4.07;1.45;;;24.30;92.50;;;;;;4859920;29;20062;-65
2022/08/02 09:38:35;;;;;;;;;;;24.40;90.00;;;;;;4860948;29;20088;-66
2022/08/02 09:41:03;;;;;;;3.05;1.90;;;24.40;84.30;;;;;;4860600;29;19924;-67
2022/08/02 09:43:37;;;;;;;2.60;1.77;;;24.50;93.50;;;;;;4861049;29;20215;-67
2022/08/02 09:46:17;;;;;;;4.40;1.80;;;24.60;92.40;;;;;;4860392;29;20057;-67
2022/08/02 09:48:54;;;;;;;2.45;1.77;;;24.60;93.00;;;;;;4860415;29;20057;-66
2022/08/02 09:51:27;;;;;;;4.50;2.38;;;24.80;95.70;;;;;;4858813;29;20061;-66
2022/08/02 09:53:55;;;;;;;3.75;2.10;;;24.90;96.30;;;;;;4824935;29;20057;-66
2022/08/02 09:56:22;;;;;;;2.38;2.10;;;25.00;97.70;;;;;;4841893;29;20066;-66
2022/08/02 09:58:50;;;;;;;4.70;2.90;;;25.10;96.50;;;;;;4827405;29;20045;-66
2022/08/02 10:01:16;;;;;;;4.10;2.47;;;25.20;96.40;;;;;;4860101;29;20060;-67
2022/08/02 10:03:59;;;;;;;2.72;2.10;;;25.20;95.20;;;;;;4860751;29;20058;-68
2022/08/02 10:06:26;;;;;;;5.47;3.20;;;25.20;97.30;;;;;;4843392;29;20061;-66
2022/08/02 10:08:54;;;;;;;2.63;2.40;;;25.20;98.00;;;;;;4858131;29;20064;-67
2022/08/02 10:11:21;;;;;;;3.63;2.20;;;25.20;97.20;;;;;;4855532;29;20053;-68
2022/08/02 10:13:48;;;;;;;2.42;2.15;;;25.20;98.60;;;;;;4857161;29;20060;-67
2022/08/02 10:16:15;;;;;;;3.70;2.42;;;25.30;99.90;;;;;;4844066;29;20101;-67
2022/08/02 10:18:42;;;;;;;6.40;2.85;;;25.20;98.60;;;;;;4843764;29;20483;-67
2022/08/02 10:21:18;;;;;;;4.22;2.70;;;25.20;98.50;;;;;;4859459;29;20054;-67
2022/08/02 10:23:45;;;;;;;4.82;2.38;;;25.20;98.30;;;;;;4843518;29;20046;-67
2022/08/02 10:26:18;;;;;;;3.67;2.53;;;25.20;99.70;;;;;;4842041;29;20537;-67
2022/08/02 10:28:48;;;;;;;3.58;2.80;;;25.30;99.90;;;;;;4857358;29;20062;-67
2022/08/02 10:31:17;;;;;;;6.82;2.67;;;25.50;99.90;;;;;;4859095;29;20125;-67
2022/08/02 10:33:44;;;;;;;3.10;2.60;;;25.60;99.90;;;;;;4860380;29;20109;-67
2022/08/02 10:36:11;;;;;;;5.30;2.70;;;25.70;99.90;;;;;;4842186;29;20140;-66
2022/08/02 10:38:37;;;;;;;4.38;2.63;;;25.80;99.90;;;;;;4845125;29;20103;-67
2022/08/02 10:41:03;;;;;;;3.15;2.20;;;25.80;99.90;;;;;;4857732;29;20061;-67
2022/08/02 10:43:31;;;;;;;2.58;2.38;;;25.90;99.90;;;;;;4843668;29;20133;-67
2022/08/02 10:46:35;;;;;;;3.38;2.40;;;25.90;99.90;;;;;;4860116;29;20061;-66
2022/08/02 10:49:11;;;;;;;5.00;2.60;;;26.00;97.40;;;;;;4844095;29;20152;-67
2022/08/02 10:51:51;;;;;;;4.18;2.17;;;26.00;97.70;;;;;;4861507;29;20065;-67
2022/08/02 10:54:22;;;;;;;4.45;2.88;;;26.00;95.00;;;;;;4863350;29;20566;-67
2022/08/02 10:56:49;;;;;;;6.00;2.50;;;26.10;99.00;;;;;;4862750;29;20061;-66
2022/08/02 10:59:28;;;;;;;5.65;2.70;;;26.10;98.50;;;;;;4846936;29;20057;-67
2022/08/02 11:02:01;;;;;;;4.53;2.63;;;26.10;90.20;;;;;;4863173;29;20478;-67
2022/08/02 11:04:36;;;;;;;4.32;2.70;;;26.20;98.20;;;;;;4861610;29;20057;-67
2022/08/02 11:07:17;;;;;;;6.60;2.97;;;26.40;96.50;;;;;;4862695;29;20061;-66
2022/08/02 11:09:48;;;;;;;2.65;2.13;;;26.40;95.80;;;;;;4863825;29;20090;-67
2022/08/02 11:12:16;;;;;;;5.10;2.30;;;26.40;96.70;;;;;;4861077;29;20061;-67
2022/08/02 11:15:03;;;;;;;3.83;2.33;;;26.40;95.00;;;;;;4847227;29;20085;-67
2022/08/02 11:17:52;;;;;;;4.18;2.60;;;26.40;94.70;;;;;;4845505;29;20113;-67
2022/08/02 11:20:20;;;;;;;3.35;2.70;;;26.50;90.90;;;;;;4862927;29;20068;-67
2022/08/02 11:22:47;;;;;;;3.78;2.40;;;26.50;93.50;;;;;;4845878;29;20340;-67
2022/08/02 11:25:29;;;;;;;3.33;2.00;;;26.50;92.40;;;;;;4862544;29;20061;-67
2022/08/02 11:27:58;;;;;;;3.58;2.05;;;26.60;92.30;;;;;;4860855;29;20075;-67
2022/08/02 11:30:26;;;;;;;3.08;2.47;;;26.60;92.30;;;;;;4860384;29;20499;-67
2022/08/02 11:32:59;;;;;;;3.08;2.47;;;26.60;91.30;;;;;;4845398;29;20088;-67
2022/08/02 11:35:35;;;;;;;2.65;2.00;;;26.60;90.20;;;;;;4861061;29;20109;-66
2022/08/02 11:38:16;;;;;;;3.70;2.25;;;26.70;92.90;;;;;;4845749;29;20473;-67
2022/08/02 11:40:42;;;;;;;3.63;2.05;;;26.70;89.90;;;;;;4862946;29;20115;-67
2022/08/02 11:43:26;;;;;;;3.92;2.20;;;26.70;92.90;;;;;;4845148;29;20064;-66
2022/08/02 11:45:53;;;;;;;3.03;1.90;;;26.70;90.40;;;;;;4845273;29;20061;-67
2022/08/02 11:48:39;;;;;;;2.95;1.83;;;26.70;90.20;;;;;;4862357;29;20157;-67
2022/08/02 11:51:15;;;;;;;1.92;1.80;;;26.70;87.60;;;;;;4861935;29;20096;-67
2022/08/02 11:53:52;;;;;;;3.83;1.40;;;26.90;81.90;;;;;;4861540;29;20185;-68
2022/08/02 11:56:26;;;;;;;3.42;1.63;;;27.00;78.30;;;;;;4845943;29;20452;-68
2022/08/02 11:59:09;;;;;;;2.10;1.70;;;27.10;78.20;;;;;;4845700;29;20105;-67
2022/08/02 12:01:37;;;;;;;2.58;1.70;;;27.20;81.60;;;;;;4845737;29;20061;-67
2022/08/02 12:04:04;;;;;;;3.20;2.17;;;27.30;80.60;;;;;;4845932;29;20392;-66
2022/08/02 12:06:30;;;;;;;3.05;1.73;;;27.40;78.20;;;;;;4860906;29;20125;-67
2022/08/02 12:09:06;;;;;;;3.47;2.30;;;27.50;78.20;;;;;;4846180;29;20404;-67
2022/08/02 12:11:32;;;;;;;5.05;1.98;;;27.50;76.00;;;;;;4861701;29;20392;-68
2022/08/02 12:13:59;;;;;;;4.28;2.40;;;27.40;76.90;;;;;;4860348;29;20130;-67
2022/08/02 12:19:25;;;;;;;2.00;1.80;;;27.40;82.00;;;;;;4845556;29;20061;-67
2022/08/02 12:22:14;;;;;;;4.13;2.03;;;27.50;87.40;;;;;;4844843;29;20133;-67
2022/08/02 12:24:42;;;;;;;3.40;2.58;;;27.70;89.80;;;;;;4861526;29;20053;-67
2022/08/02 12:27:08;;;;;;;2.08;1.88;;;27.60;88.10;;;;;;4843523;29;20058;-68
2022/08/02 12:29:36;;;;;;;2.70;1.80;;;27.60;84.50;;;;;;4841230;29;20046;-67
2022/08/02 12:32:03;;;;;;;3.78;1.80;;;27.70;85.90;;;;;;4841716;29;20054;-68
2022/08/02 12:34:31;;;;;;;3.67;1.65;;;27.70;85.50;;;;;;4843185;29;20065;-68
2022/08/02 12:37:04;;;;;;;2.92;1.90;;;27.70;80.80;;;;;;4826637;29;20468;-67
2022/08/02 12:39:42;;;;;;;3.25;2.28;;;27.70;81.20;;;;;;4843385;29;20062;-67
2022/08/02 12:42:09;;;;;;;2.85;2.20;;;27.60;78.70;;;;;;4843245;29;20436;-68
2022/08/02 12:44:37;;;;;;;2.90;2.10;;;27.60;83.00;;;;;;4843166;29;20109;-67
2022/08/02 12:47:05;;;;;;;2.30;2.08;;;27.60;90.00;;;;;;4841547;29;20057;-67
2022/08/02 12:49:32;;;;;;;2.33;1.83;;;27.50;85.40;;;;;;4826276;29;20452;-67
2022/08/02 12:51:57;;;;;;;2.13;1.88;;;27.40;86.30;;;;;;4825146;29;20101;-67
2022/08/02 12:54:26;;;;;;;2.30;2.10;;;27.40;88.30;;;;;;4842961;29;20050;-67
2022/08/02 12:56:51;;;;;;;1.90;1.70;;;27.30;89.30;;;;;;4842731;29;20164;-68
2022/08/02 12:59:33;;;;;;;2.55;1.60;;;27.10;85.20;;;;;;4842901;29;20079;-67
2022/08/02 13:02:07;;;;;;;3.15;1.55;;;27.10;82.60;;;;;;4826221;29;20414;-67
2022/08/02 13:04:33;;;;;;;2.38;1.67;;;27.00;81.20;;;;;;4810866;29;20086;-67
2022/08/02 13:06:58;;;;;;;2.75;1.52;;;26.80;87.60;;;;;;4839779;29;20089;-67